sensor_id;sensor_type;location;lat;lon;timestamp;P1;durP1;ratioP1;P2;durP2;ratioP2
52306;SDS011;38249;48.920;12.882;2022-10-16T00:00:20;3.08;;;1.67;;
52306;SDS011;38249;48.920;12.882;2022-10-16T00:02:46;4.13;;;1.80;;
52306;SDS011;38249;48.920;12.882;2022-10-16T00:05:13;3.42;;;1.77;;
52306;SDS011;38249;48.920;12.882;2022-10-16T00:07:39;5.47;;;1.50;;
52306;SDS011;38249;48.920;12.882;2022-10-16T00:10:06;2.72;;;1.48;;
52306;SDS011;38249;48.920;12.882;2022-10-16T00:12:33;6.05;;;1.63;;
52306;SDS011;38249;48.920;12.882;2022-10-16T00:15:00;4.03;;;1.40;;
52306;SDS011;38249;48.920;12.882;2022-10-16T00:17:28;4.38;;;1.33;;
52306;SDS011;38249;48.920;12.882;2022-10-16T00:19:55;2.08;;;1.30;;
52306;SDS011;38249;48.920;12.882;2022-10-16T00:22:22;1.75;;;1.20;;
52306;SDS011;38249;48.920;12.882;2022-10-16T00:24:49;1.52;;;1.42;;
52306;SDS011;38249;48.920;12.882;2022-10-16T00:27:15;5.13;;;1.38;;
52306;SDS011;38249;48.920;12.882;2022-10-16T00:29:42;2.40;;;1.15;;
52306;SDS011;38249;48.920;12.882;2022-10-16T00:32:08;2.97;;;1.45;;
52306;SDS011;38249;48.920;12.882;2022-10-16T00:34:36;2.78;;;1.55;;
52306;SDS011;38249;48.920;12.882;2022-10-16T00:37:03;3.95;;;1.42;;
52306;SDS011;38249;48.920;12.882;2022-10-16T00:39:30;2.55;;;1.70;;
52306;SDS011;38249;48.920;12.882;2022-10-16T00:41:56;9.23;;;6.47;;
52306;SDS011;38249;48.920;12.882;2022-10-16T00:47:09;2.17;;;1.45;;
52306;SDS011;38249;48.920;12.882;2022-10-16T00:49:40;3.50;;;1.40;;
52306;SDS011;38249;48.920;12.882;2022-10-16T00:52:07;2.97;;;1.45;;
52306;SDS011;38249;48.920;12.882;2022-10-16T00:54:34;2.13;;;1.50;;
52306;SDS011;38249;48.920;12.882;2022-10-16T00:57:01;3.58;;;1.30;;
52306;SDS011;38249;48.920;12.882;2022-10-16T00:59:31;3.10;;;1.30;;
52306;SDS011;38249;48.920;12.882;2022-10-16T01:01:59;2.00;;;1.77;;
52306;SDS011;38249;48.920;12.882;2022-10-16T01:04:27;4.20;;;1.70;;
52306;SDS011;38249;48.920;12.882;2022-10-16T01:07:01;4.30;;;1.73;;
52306;SDS011;38249;48.920;12.882;2022-10-16T01:09:37;3.08;;;1.58;;
52306;SDS011;38249;48.920;12.882;2022-10-16T01:12:14;2.55;;;1.23;;
52306;SDS011;38249;48.920;12.882;2022-10-16T01:14:47;3.60;;;1.77;;
52306;SDS011;38249;48.920;12.882;2022-10-16T01:17:20;2.53;;;1.50;;
52306;SDS011;38249;48.920;12.882;2022-10-16T01:20:03;3.53;;;1.52;;
52306;SDS011;38249;48.920;12.882;2022-10-16T01:22:39;7.45;;;1.85;;
52306;SDS011;38249;48.920;12.882;2022-10-16T01:25:17;3.13;;;1.90;;
52306;SDS011;38249;48.920;12.882;2022-10-16T01:27:49;3.50;;;1.60;;
52306;SDS011;38249;48.920;12.882;2022-10-16T01:30:17;6.60;;;2.30;;
52306;SDS011;38249;48.920;12.882;2022-10-16T01:32:49;2.67;;;1.67;;
52306;SDS011;38249;48.920;12.882;2022-10-16T01:35:20;2.35;;;1.80;;
52306;SDS011;38249;48.920;12.882;2022-10-16T01:37:51;3.13;;;1.90;;
52306;SDS011;38249;48.920;12.882;2022-10-16T01:40:23;8.40;;;2.20;;
52306;SDS011;38249;48.920;12.882;2022-10-16T01:42:54;4.22;;;1.75;;
52306;SDS011;38249;48.920;12.882;2022-10-16T01:45:26;4.07;;;1.88;;
52306;SDS011;38249;48.920;12.882;2022-10-16T01:47:55;2.65;;;1.70;;
52306;SDS011;38249;48.920;12.882;2022-10-16T01:50:24;7.18;;;1.80;;
52306;SDS011;38249;48.920;12.882;2022-10-16T01:52:52;3.53;;;1.95;;
52306;SDS011;38249;48.920;12.882;2022-10-16T01:55:24;4.22;;;1.65;;
52306;SDS011;38249;48.920;12.882;2022-10-16T01:57:56;7.43;;;2.35;;
52306;SDS011;38249;48.920;12.882;2022-10-16T02:00:26;3.17;;;1.92;;
52306;SDS011;38249;48.920;12.882;2022-10-16T02:02:53;5.13;;;1.77;;
52306;SDS011;38249;48.920;12.882;2022-10-16T02:05:22;4.03;;;1.52;;
52306;SDS011;38249;48.920;12.882;2022-10-16T02:07:53;2.78;;;1.75;;
52306;SDS011;38249;48.920;12.882;2022-10-16T02:10:19;4.78;;;2.10;;
52306;SDS011;38249;48.920;12.882;2022-10-16T02:12:48;3.30;;;1.98;;
52306;SDS011;38249;48.920;12.882;2022-10-16T02:15:21;4.63;;;1.88;;
52306;SDS011;38249;48.920;12.882;2022-10-16T02:17:47;1.95;;;1.75;;
52306;SDS011;38249;48.920;12.882;2022-10-16T02:20:14;3.17;;;1.92;;
52306;SDS011;38249;48.920;12.882;2022-10-16T02:22:42;6.30;;;1.60;;
52306;SDS011;38249;48.920;12.882;2022-10-16T02:25:13;2.05;;;1.60;;
52306;SDS011;38249;48.920;12.882;2022-10-16T02:27:46;3.80;;;1.55;;
52306;SDS011;38249;48.920;12.882;2022-10-16T02:30:19;3.70;;;1.80;;
52306;SDS011;38249;48.920;12.882;2022-10-16T02:32:51;4.75;;;1.90;;
52306;SDS011;38249;48.920;12.882;2022-10-16T02:35:20;3.58;;;3.08;;
52306;SDS011;38249;48.920;12.882;2022-10-16T02:37:48;2.67;;;2.40;;
52306;SDS011;38249;48.920;12.882;2022-10-16T02:40:17;3.35;;;2.33;;
52306;SDS011;38249;48.920;12.882;2022-10-16T02:42:44;9.23;;;3.22;;
52306;SDS011;38249;48.920;12.882;2022-10-16T02:45:16;7.10;;;2.85;;
52306;SDS011;38249;48.920;12.882;2022-10-16T02:47:44;13.85;;;10.82;;
52306;SDS011;38249;48.920;12.882;2022-10-16T02:50:11;27.05;;;19.55;;
52306;SDS011;38249;48.920;12.882;2022-10-16T02:52:37;17.52;;;11.80;;
52306;SDS011;38249;48.920;12.882;2022-10-16T02:55:04;14.00;;;10.27;;
52306;SDS011;38249;48.920;12.882;2022-10-16T02:57:31;9.48;;;5.88;;
52306;SDS011;38249;48.920;12.882;2022-10-16T02:59:58;2.90;;;2.08;;
52306;SDS011;38249;48.920;12.882;2022-10-16T03:02:24;2.78;;;2.20;;
52306;SDS011;38249;48.920;12.882;2022-10-16T03:04:53;4.05;;;2.20;;
52306;SDS011;38249;48.920;12.882;2022-10-16T03:07:19;12.45;;;2.30;;
52306;SDS011;38249;48.920;12.882;2022-10-16T03:09:46;3.88;;;2.30;;
52306;SDS011;38249;48.920;12.882;2022-10-16T03:12:12;8.57;;;2.53;;
52306;SDS011;38249;48.920;12.882;2022-10-16T03:14:39;5.38;;;2.80;;
52306;SDS011;38249;48.920;12.882;2022-10-16T03:17:05;7.18;;;3.05;;
52306;SDS011;38249;48.920;12.882;2022-10-16T03:19:32;2.72;;;1.80;;
52306;SDS011;38249;48.920;12.882;2022-10-16T03:22:01;5.65;;;2.20;;
52306;SDS011;38249;48.920;12.882;2022-10-16T03:24:28;4.57;;;2.28;;
52306;SDS011;38249;48.920;12.882;2022-10-16T03:26:54;4.07;;;1.95;;
52306;SDS011;38249;48.920;12.882;2022-10-16T03:29:21;2.72;;;2.08;;
52306;SDS011;38249;48.920;12.882;2022-10-16T03:31:47;5.30;;;2.20;;
52306;SDS011;38249;48.920;12.882;2022-10-16T03:34:14;4.85;;;2.20;;
52306;SDS011;38249;48.920;12.882;2022-10-16T03:36:41;3.28;;;1.85;;
52306;SDS011;38249;48.920;12.882;2022-10-16T03:39:09;7.88;;;4.50;;
52306;SDS011;38249;48.920;12.882;2022-10-16T03:41:35;8.77;;;4.65;;
52306;SDS011;38249;48.920;12.882;2022-10-16T03:44:02;2.55;;;2.30;;
52306;SDS011;38249;48.920;12.882;2022-10-16T03:46:28;25.13;;;19.58;;
52306;SDS011;38249;48.920;12.882;2022-10-16T03:48:55;15.10;;;11.73;;
52306;SDS011;38249;48.920;12.882;2022-10-16T03:51:22;6.53;;;3.60;;
52306;SDS011;38249;48.920;12.882;2022-10-16T03:53:48;10.73;;;5.43;;
52306;SDS011;38249;48.920;12.882;2022-10-16T03:56:16;10.63;;;8.13;;
52306;SDS011;38249;48.920;12.882;2022-10-16T03:58:43;17.20;;;12.43;;
52306;SDS011;38249;48.920;12.882;2022-10-16T04:01:09;12.98;;;7.82;;
52306;SDS011;38249;48.920;12.882;2022-10-16T04:03:36;30.98;;;23.05;;
52306;SDS011;38249;48.920;12.882;2022-10-16T04:06:02;7.70;;;4.47;;
52306;SDS011;38249;48.920;12.882;2022-10-16T04:08:29;4.28;;;2.53;;
52306;SDS011;38249;48.920;12.882;2022-10-16T04:10:56;4.70;;;2.38;;
52306;SDS011;38249;48.920;12.882;2022-10-16T04:13:23;6.53;;;2.08;;
52306;SDS011;38249;48.920;12.882;2022-10-16T04:15:50;8.68;;;3.72;;
52306;SDS011;38249;48.920;12.882;2022-10-16T04:18:16;3.75;;;2.60;;
52306;SDS011;38249;48.920;12.882;2022-10-16T04:20:43;4.97;;;2.80;;
52306;SDS011;38249;48.920;12.882;2022-10-16T04:23:09;4.65;;;2.20;;
52306;SDS011;38249;48.920;12.882;2022-10-16T04:25:36;4.53;;;2.17;;
52306;SDS011;38249;48.920;12.882;2022-10-16T04:28:03;4.95;;;2.95;;
52306;SDS011;38249;48.920;12.882;2022-10-16T04:30:31;3.67;;;2.88;;
52306;SDS011;38249;48.920;12.882;2022-10-16T04:32:58;3.50;;;2.08;;
52306;SDS011;38249;48.920;12.882;2022-10-16T04:35:25;3.53;;;2.47;;
52306;SDS011;38249;48.920;12.882;2022-10-16T04:37:51;5.30;;;3.35;;
52306;SDS011;38249;48.920;12.882;2022-10-16T04:40:18;3.60;;;2.22;;
52306;SDS011;38249;48.920;12.882;2022-10-16T04:42:44;3.47;;;2.15;;
52306;SDS011;38249;48.920;12.882;2022-10-16T04:45:11;5.15;;;2.20;;
52306;SDS011;38249;48.920;12.882;2022-10-16T04:47:39;3.80;;;2.22;;
52306;SDS011;38249;48.920;12.882;2022-10-16T04:50:06;5.55;;;2.83;;
52306;SDS011;38249;48.920;12.882;2022-10-16T04:52:33;13.43;;;7.43;;
52306;SDS011;38249;48.920;12.882;2022-10-16T04:55:00;14.20;;;7.82;;
52306;SDS011;38249;48.920;12.882;2022-10-16T04:57:27;15.40;;;9.07;;
52306;SDS011;38249;48.920;12.882;2022-10-16T04:59:54;16.77;;;12.38;;
52306;SDS011;38249;48.920;12.882;2022-10-16T05:02:21;12.35;;;6.65;;
52306;SDS011;38249;48.920;12.882;2022-10-16T05:04:49;10.90;;;6.32;;
52306;SDS011;38249;48.920;12.882;2022-10-16T05:07:15;3.45;;;2.38;;
52306;SDS011;38249;48.920;12.882;2022-10-16T05:09:42;8.52;;;4.70;;
52306;SDS011;38249;48.920;12.882;2022-10-16T05:12:08;11.52;;;7.95;;
52306;SDS011;38249;48.920;12.882;2022-10-16T05:14:35;11.02;;;7.35;;
52306;SDS011;38249;48.920;12.882;2022-10-16T05:17:01;7.05;;;4.20;;
52306;SDS011;38249;48.920;12.882;2022-10-16T05:19:28;3.38;;;2.50;;
52306;SDS011;38249;48.920;12.882;2022-10-16T05:21:56;5.15;;;2.20;;
52306;SDS011;38249;48.920;12.882;2022-10-16T05:24:23;5.72;;;3.30;;
52306;SDS011;38249;48.920;12.882;2022-10-16T05:26:49;4.22;;;1.85;;
52306;SDS011;38249;48.920;12.882;2022-10-16T05:29:16;6.95;;;3.78;;
52306;SDS011;38249;48.920;12.882;2022-10-16T05:31:43;5.53;;;3.13;;
52306;SDS011;38249;48.920;12.882;2022-10-16T05:34:09;7.05;;;3.20;;
52306;SDS011;38249;48.920;12.882;2022-10-16T05:36:36;3.85;;;2.30;;
52306;SDS011;38249;48.920;12.882;2022-10-16T05:39:04;4.13;;;2.00;;
52306;SDS011;38249;48.920;12.882;2022-10-16T05:41:30;7.82;;;2.50;;
52306;SDS011;38249;48.920;12.882;2022-10-16T05:43:57;5.18;;;2.00;;
52306;SDS011;38249;48.920;12.882;2022-10-16T05:46:23;4.75;;;2.60;;
52306;SDS011;38249;48.920;12.882;2022-10-16T05:48:51;4.53;;;1.90;;
52306;SDS011;38249;48.920;12.882;2022-10-16T05:51:18;3.70;;;1.70;;
52306;SDS011;38249;48.920;12.882;2022-10-16T05:53:44;4.10;;;1.52;;
52306;SDS011;38249;48.920;12.882;2022-10-16T05:56:12;6.07;;;1.88;;
52306;SDS011;38249;48.920;12.882;2022-10-16T05:58:39;3.10;;;1.98;;
52306;SDS011;38249;48.920;12.882;2022-10-16T06:01:07;1.70;;;1.60;;
52306;SDS011;38249;48.920;12.882;2022-10-16T06:03:36;2.45;;;1.67;;
52306;SDS011;38249;48.920;12.882;2022-10-16T06:06:07;5.30;;;1.73;;
52306;SDS011;38249;48.920;12.882;2022-10-16T06:08:34;2.22;;;1.80;;
52306;SDS011;38249;48.920;12.882;2022-10-16T06:11:01;5.43;;;2.20;;
52306;SDS011;38249;48.920;12.882;2022-10-16T06:13:29;4.40;;;2.85;;
52306;SDS011;38249;48.920;12.882;2022-10-16T06:15:56;3.72;;;1.95;;
52306;SDS011;38249;48.920;12.882;2022-10-16T06:18:24;3.28;;;2.15;;
52306;SDS011;38249;48.920;12.882;2022-10-16T06:20:51;3.88;;;2.17;;
52306;SDS011;38249;48.920;12.882;2022-10-16T06:23:17;6.40;;;1.98;;
52306;SDS011;38249;48.920;12.882;2022-10-16T06:25:44;3.72;;;2.15;;
52306;SDS011;38249;48.920;12.882;2022-10-16T06:28:10;3.22;;;2.50;;
52306;SDS011;38249;48.920;12.882;2022-10-16T06:30:38;2.83;;;1.98;;
52306;SDS011;38249;48.920;12.882;2022-10-16T06:33:05;3.15;;;1.70;;
52306;SDS011;38249;48.920;12.882;2022-10-16T06:35:32;3.78;;;2.25;;
52306;SDS011;38249;48.920;12.882;2022-10-16T06:37:58;3.42;;;2.15;;
52306;SDS011;38249;48.920;12.882;2022-10-16T06:40:25;4.18;;;2.83;;
52306;SDS011;38249;48.920;12.882;2022-10-16T06:42:54;6.80;;;5.68;;
52306;SDS011;38249;48.920;12.882;2022-10-16T06:45:20;6.32;;;3.97;;
52306;SDS011;38249;48.920;12.882;2022-10-16T06:47:48;5.45;;;3.28;;
52306;SDS011;38249;48.920;12.882;2022-10-16T06:50:15;4.55;;;2.60;;
52306;SDS011;38249;48.920;12.882;2022-10-16T06:52:41;8.65;;;4.30;;
52306;SDS011;38249;48.920;12.882;2022-10-16T06:55:08;7.78;;;4.47;;
52306;SDS011;38249;48.920;12.882;2022-10-16T06:57:35;6.57;;;5.30;;
52306;SDS011;38249;48.920;12.882;2022-10-16T07:00:02;4.22;;;2.83;;
52306;SDS011;38249;48.920;12.882;2022-10-16T07:02:29;4.47;;;3.83;;
52306;SDS011;38249;48.920;12.882;2022-10-16T07:04:57;3.38;;;2.88;;
52306;SDS011;38249;48.920;12.882;2022-10-16T07:07:23;5.25;;;2.97;;
52306;SDS011;38249;48.920;12.882;2022-10-16T07:09:51;11.82;;;2.40;;
52306;SDS011;38249;48.920;12.882;2022-10-16T07:12:18;3.22;;;1.80;;
52306;SDS011;38249;48.920;12.882;2022-10-16T07:14:44;5.10;;;2.25;;
52306;SDS011;38249;48.920;12.882;2022-10-16T07:17:11;2.33;;;2.10;;
52306;SDS011;38249;48.920;12.882;2022-10-16T07:19:38;1.50;;;1.38;;
52306;SDS011;38249;48.920;12.882;2022-10-16T07:22:06;3.63;;;2.17;;
52306;SDS011;38249;48.920;12.882;2022-10-16T07:24:32;3.50;;;3.05;;
52306;SDS011;38249;48.920;12.882;2022-10-16T07:26:59;3.03;;;2.72;;
52306;SDS011;38249;48.920;12.882;2022-10-16T07:29:25;5.85;;;4.15;;
52306;SDS011;38249;48.920;12.882;2022-10-16T07:31:52;2.67;;;1.70;;
52306;SDS011;38249;48.920;12.882;2022-10-16T07:34:19;3.10;;;1.95;;
52306;SDS011;38249;48.920;12.882;2022-10-16T07:36:47;7.60;;;5.00;;
52306;SDS011;38249;48.920;12.882;2022-10-16T07:39:16;4.85;;;4.28;;
52306;SDS011;38249;48.920;12.882;2022-10-16T07:41:43;14.57;;;2.22;;
52306;SDS011;38249;48.920;12.882;2022-10-16T07:44:09;4.78;;;4.20;;
52306;SDS011;38249;48.920;12.882;2022-10-16T07:46:36;4.90;;;3.40;;
52306;SDS011;38249;48.920;12.882;2022-10-16T07:49:02;3.40;;;3.10;;
52306;SDS011;38249;48.920;12.882;2022-10-16T07:51:30;4.72;;;1.90;;
52306;SDS011;38249;48.920;12.882;2022-10-16T07:53:56;1.90;;;1.10;;
52306;SDS011;38249;48.920;12.882;2022-10-16T07:56:25;2.47;;;1.73;;
52306;SDS011;38249;48.920;12.882;2022-10-16T07:58:51;1.40;;;1.30;;
52306;SDS011;38249;48.920;12.882;2022-10-16T08:01:19;3.20;;;1.90;;
52306;SDS011;38249;48.920;12.882;2022-10-16T08:03:46;2.22;;;2.03;;
52306;SDS011;38249;48.920;12.882;2022-10-16T08:06:14;2.50;;;1.75;;
52306;SDS011;38249;48.920;12.882;2022-10-16T08:08:41;2.90;;;1.60;;
52306;SDS011;38249;48.920;12.882;2022-10-16T08:11:08;2.60;;;2.25;;
52306;SDS011;38249;48.920;12.882;2022-10-16T08:13:36;2.42;;;2.10;;
52306;SDS011;38249;48.920;12.882;2022-10-16T08:16:03;4.63;;;2.80;;
52306;SDS011;38249;48.920;12.882;2022-10-16T08:18:32;2.80;;;2.42;;
52306;SDS011;38249;48.920;12.882;2022-10-16T08:20:59;3.65;;;2.45;;
52306;SDS011;38249;48.920;12.882;2022-10-16T08:23:26;5.80;;;2.20;;
52306;SDS011;38249;48.920;12.882;2022-10-16T08:25:53;3.53;;;2.60;;
52306;SDS011;38249;48.920;12.882;2022-10-16T08:28:21;4.90;;;2.72;;
52306;SDS011;38249;48.920;12.882;2022-10-16T08:30:49;9.63;;;2.55;;
52306;SDS011;38249;48.920;12.882;2022-10-16T08:33:16;7.22;;;2.75;;
52306;SDS011;38249;48.920;12.882;2022-10-16T08:35:42;3.28;;;2.22;;
52306;SDS011;38249;48.920;12.882;2022-10-16T08:38:09;5.32;;;2.30;;
52306;SDS011;38249;48.920;12.882;2022-10-16T08:40:36;3.33;;;2.30;;
52306;SDS011;38249;48.920;12.882;2022-10-16T08:43:10;2.50;;;2.00;;
52306;SDS011;38249;48.920;12.882;2022-10-16T08:48:51;3.97;;;2.00;;
52306;SDS011;38249;48.920;12.882;2022-10-16T08:51:21;2.97;;;1.67;;
52306;SDS011;38249;48.920;12.882;2022-10-16T08:53:51;1.88;;;1.70;;
52306;SDS011;38249;48.920;12.882;2022-10-16T08:56:21;5.28;;;1.85;;
52306;SDS011;38249;48.920;12.882;2022-10-16T08:58:48;2.15;;;1.77;;
52306;SDS011;38249;48.920;12.882;2022-10-16T09:01:17;3.38;;;1.90;;
52306;SDS011;38249;48.920;12.882;2022-10-16T09:03:56;7.25;;;1.98;;
52306;SDS011;38249;48.920;12.882;2022-10-16T09:06:39;1.67;;;1.55;;
52306;SDS011;38249;48.920;12.882;2022-10-16T09:12:08;2.65;;;1.77;;
52306;SDS011;38249;48.920;12.882;2022-10-16T09:14:50;3.13;;;1.90;;
52306;SDS011;38249;48.920;12.882;2022-10-16T09:17:27;4.03;;;1.90;;
52306;SDS011;38249;48.920;12.882;2022-10-16T09:20:10;1.77;;;1.63;;
52306;SDS011;38249;48.920;12.882;2022-10-16T09:22:44;5.03;;;2.00;;
52306;SDS011;38249;48.920;12.882;2022-10-16T09:25:11;1.92;;;1.83;;
52306;SDS011;38249;48.920;12.882;2022-10-16T09:27:39;5.20;;;1.80;;
52306;SDS011;38249;48.920;12.882;2022-10-16T09:30:10;13.07;;;11.77;;
52306;SDS011;38249;48.920;12.882;2022-10-16T09:32:39;7.53;;;6.35;;
52306;SDS011;38249;48.920;12.882;2022-10-16T09:35:11;5.28;;;4.38;;
52306;SDS011;38249;48.920;12.882;2022-10-16T09:37:42;3.10;;;1.70;;
52306;SDS011;38249;48.920;12.882;2022-10-16T09:40:12;3.65;;;1.88;;
52306;SDS011;38249;48.920;12.882;2022-10-16T09:42:39;5.70;;;3.22;;
52306;SDS011;38249;48.920;12.882;2022-10-16T09:45:18;4.22;;;2.15;;
52306;SDS011;38249;48.920;12.882;2022-10-16T09:47:47;2.20;;;2.00;;
52306;SDS011;38249;48.920;12.882;2022-10-16T09:50:22;2.08;;;1.48;;
52306;SDS011;38249;48.920;12.882;2022-10-16T09:52:51;2.03;;;1.60;;
52306;SDS011;38249;48.920;12.882;2022-10-16T09:55:29;2.50;;;1.58;;
52306;SDS011;38249;48.920;12.882;2022-10-16T09:57:55;2.78;;;1.38;;
52306;SDS011;38249;48.920;12.882;2022-10-16T10:00:23;3.17;;;1.73;;
52306;SDS011;38249;48.920;12.882;2022-10-16T10:02:50;2.00;;;1.80;;
52306;SDS011;38249;48.920;12.882;2022-10-16T10:05:19;1.85;;;1.13;;
52306;SDS011;38249;48.920;12.882;2022-10-16T10:07:53;1.10;;;1.00;;
52306;SDS011;38249;48.920;12.882;2022-10-16T10:10:22;3.97;;;1.25;;
52306;SDS011;38249;48.920;12.882;2022-10-16T10:12:51;3.75;;;1.33;;
52306;SDS011;38249;48.920;12.882;2022-10-16T10:15:18;2.53;;;1.38;;
52306;SDS011;38249;48.920;12.882;2022-10-16T10:17:47;2.20;;;1.70;;
52306;SDS011;38249;48.920;12.882;2022-10-16T10:20:20;1.25;;;1.15;;
52306;SDS011;38249;48.920;12.882;2022-10-16T10:22:50;2.13;;;1.02;;
52306;SDS011;38249;48.920;12.882;2022-10-16T10:25:23;5.00;;;1.40;;
52306;SDS011;38249;48.920;12.882;2022-10-16T10:28:05;2.38;;;1.10;;
52306;SDS011;38249;48.920;12.882;2022-10-16T10:30:46;1.27;;;1.17;;
52306;SDS011;38249;48.920;12.882;2022-10-16T10:33:25;1.33;;;1.08;;
52306;SDS011;38249;48.920;12.882;2022-10-16T10:36:01;2.13;;;1.02;;
52306;SDS011;38249;48.920;12.882;2022-10-16T10:38:39;3.10;;;1.17;;
52306;SDS011;38249;48.920;12.882;2022-10-16T10:44:16;2.50;;;0.80;;
52306;SDS011;38249;48.920;12.882;2022-10-16T10:46:51;1.42;;;1.23;;
52306;SDS011;38249;48.920;12.882;2022-10-16T10:49:28;3.20;;;0.90;;
52306;SDS011;38249;48.920;12.882;2022-10-16T10:52:10;0.80;;;0.80;;
52306;SDS011;38249;48.920;12.882;2022-10-16T10:54:49;0.88;;;0.60;;
52306;SDS011;38249;48.920;12.882;2022-10-16T10:57:25;3.95;;;0.88;;
52306;SDS011;38249;48.920;12.882;2022-10-16T11:00:01;1.95;;;0.60;;
52306;SDS011;38249;48.920;12.882;2022-10-16T11:05:15;0.40;;;0.40;;
52306;SDS011;38249;48.920;12.882;2022-10-16T11:07:54;1.75;;;0.50;;
52306;SDS011;38249;48.920;12.882;2022-10-16T11:10:25;1.45;;;0.70;;
52306;SDS011;38249;48.920;12.882;2022-10-16T11:12:55;0.60;;;0.60;;
52306;SDS011;38249;48.920;12.882;2022-10-16T11:15:27;2.80;;;0.60;;
52306;SDS011;38249;48.920;12.882;2022-10-16T11:17:59;0.95;;;0.80;;
52306;SDS011;38249;48.920;12.882;2022-10-16T11:20:32;1.90;;;1.05;;
52306;SDS011;38249;48.920;12.882;2022-10-16T11:23:07;0.57;;;0.50;;
52306;SDS011;38249;48.920;12.882;2022-10-16T11:25:40;2.33;;;0.70;;
52306;SDS011;38249;48.920;12.882;2022-10-16T11:28:10;0.55;;;0.45;;
52306;SDS011;38249;48.920;12.882;2022-10-16T11:30:41;0.80;;;0.60;;
52306;SDS011;38249;48.920;12.882;2022-10-16T11:33:23;3.22;;;0.60;;
52306;SDS011;38249;48.920;12.882;2022-10-16T11:35:57;0.93;;;0.77;;
52306;SDS011;38249;48.920;12.882;2022-10-16T11:41:02;1.30;;;0.75;;
52306;SDS011;38249;48.920;12.882;2022-10-16T11:43:32;0.47;;;0.47;;
52306;SDS011;38249;48.920;12.882;2022-10-16T11:46:04;1.75;;;0.60;;
52306;SDS011;38249;48.920;12.882;2022-10-16T11:48:39;1.98;;;0.50;;
52306;SDS011;38249;48.920;12.882;2022-10-16T11:51:14;0.70;;;0.68;;
52306;SDS011;38249;48.920;12.882;2022-10-16T11:53:48;0.70;;;0.65;;
52306;SDS011;38249;48.920;12.882;2022-10-16T11:56:21;0.98;;;0.60;;
52306;SDS011;38249;48.920;12.882;2022-10-16T11:58:51;2.25;;;0.70;;
52306;SDS011;38249;48.920;12.882;2022-10-16T12:01:24;0.60;;;0.60;;
52306;SDS011;38249;48.920;12.882;2022-10-16T12:03:59;1.67;;;0.60;;
52306;SDS011;38249;48.920;12.882;2022-10-16T12:06:33;2.22;;;0.90;;
52306;SDS011;38249;48.920;12.882;2022-10-16T12:09:05;1.52;;;0.90;;
52306;SDS011;38249;48.920;12.882;2022-10-16T12:11:37;1.37;;;0.70;;
52306;SDS011;38249;48.920;12.882;2022-10-16T12:14:06;1.45;;;0.73;;
52306;SDS011;38249;48.920;12.882;2022-10-16T12:16:50;0.70;;;0.70;;
52306;SDS011;38249;48.920;12.882;2022-10-16T12:19:18;1.13;;;0.90;;
52306;SDS011;38249;48.920;12.882;2022-10-16T12:21:46;7.18;;;1.02;;
52306;SDS011;38249;48.920;12.882;2022-10-16T12:24:21;2.10;;;0.80;;
52306;SDS011;38249;48.920;12.882;2022-10-16T12:26:54;1.10;;;0.90;;
52306;SDS011;38249;48.920;12.882;2022-10-16T12:29:23;1.50;;;1.08;;
52306;SDS011;38249;48.920;12.882;2022-10-16T12:31:58;1.20;;;0.90;;
52306;SDS011;38249;48.920;12.882;2022-10-16T12:34:26;1.00;;;0.90;;
52306;SDS011;38249;48.920;12.882;2022-10-16T12:36:55;2.78;;;0.88;;
52306;SDS011;38249;48.920;12.882;2022-10-16T12:39:34;1.35;;;0.90;;
52306;SDS011;38249;48.920;12.882;2022-10-16T12:42:03;3.10;;;1.08;;
52306;SDS011;38249;48.920;12.882;2022-10-16T12:44:32;1.23;;;1.13;;
52306;SDS011;38249;48.920;12.882;2022-10-16T12:46:59;1.48;;;1.13;;
52306;SDS011;38249;48.920;12.882;2022-10-16T12:49:30;1.67;;;1.20;;
52306;SDS011;38249;48.920;12.882;2022-10-16T12:52:01;1.02;;;0.80;;
52306;SDS011;38249;48.920;12.882;2022-10-16T12:54:29;1.33;;;1.10;;
52306;SDS011;38249;48.920;12.882;2022-10-16T12:59:58;2.17;;;1.42;;
52306;SDS011;38249;48.920;12.882;2022-10-16T13:02:39;1.40;;;1.10;;
52306;SDS011;38249;48.920;12.882;2022-10-16T13:05:26;1.45;;;1.30;;
52306;SDS011;38249;48.920;12.882;2022-10-16T13:08:30;3.30;;;1.40;;
52306;SDS011;38249;48.920;12.882;2022-10-16T13:11:11;1.25;;;1.13;;
52306;SDS011;38249;48.920;12.882;2022-10-16T13:13:52;1.20;;;1.10;;
52306;SDS011;38249;48.920;12.882;2022-10-16T13:16:32;2.65;;;1.50;;
52306;SDS011;38249;48.920;12.882;2022-10-16T13:19:12;2.42;;;1.30;;
52306;SDS011;38249;48.920;12.882;2022-10-16T13:21:49;3.53;;;1.40;;
52306;SDS011;38249;48.920;12.882;2022-10-16T13:24:25;2.40;;;1.30;;
52306;SDS011;38249;48.920;12.882;2022-10-16T13:27:04;3.67;;;1.48;;
52306;SDS011;38249;48.920;12.882;2022-10-16T13:29:37;1.50;;;1.33;;
52306;SDS011;38249;48.920;12.882;2022-10-16T13:32:07;5.60;;;1.27;;
52306;SDS011;38249;48.920;12.882;2022-10-16T13:34:41;4.03;;;1.30;;
52306;SDS011;38249;48.920;12.882;2022-10-16T13:37:16;2.25;;;1.30;;
52306;SDS011;38249;48.920;12.882;2022-10-16T13:39:43;4.35;;;1.40;;
52306;SDS011;38249;48.920;12.882;2022-10-16T13:42:10;3.45;;;1.35;;
52306;SDS011;38249;48.920;12.882;2022-10-16T13:44:41;4.60;;;1.45;;
52306;SDS011;38249;48.920;12.882;2022-10-16T13:47:14;3.15;;;1.40;;
52306;SDS011;38249;48.920;12.882;2022-10-16T13:49:43;2.60;;;1.48;;
52306;SDS011;38249;48.920;12.882;2022-10-16T13:52:16;2.28;;;1.40;;
52306;SDS011;38249;48.920;12.882;2022-10-16T13:54:44;2.08;;;1.55;;
52306;SDS011;38249;48.920;12.882;2022-10-16T13:57:12;4.35;;;1.90;;
52306;SDS011;38249;48.920;12.882;2022-10-16T13:59:41;3.28;;;1.70;;
52306;SDS011;38249;48.920;12.882;2022-10-16T14:02:10;2.63;;;1.73;;
52306;SDS011;38249;48.920;12.882;2022-10-16T14:04:44;3.90;;;1.92;;
52306;SDS011;38249;48.920;12.882;2022-10-16T14:07:13;3.08;;;1.77;;
52306;SDS011;38249;48.920;12.882;2022-10-16T14:09:42;2.15;;;1.48;;
52306;SDS011;38249;48.920;12.882;2022-10-16T14:12:15;2.13;;;1.42;;
52306;SDS011;38249;48.920;12.882;2022-10-16T14:14:44;2.50;;;1.77;;
52306;SDS011;38249;48.920;12.882;2022-10-16T14:17:15;5.05;;;2.05;;
52306;SDS011;38249;48.920;12.882;2022-10-16T14:19:45;2.92;;;1.70;;
52306;SDS011;38249;48.920;12.882;2022-10-16T14:22:21;4.35;;;1.70;;
52306;SDS011;38249;48.920;12.882;2022-10-16T14:24:53;2.95;;;1.60;;
52306;SDS011;38249;48.920;12.882;2022-10-16T14:27:28;3.88;;;1.50;;
52306;SDS011;38249;48.920;12.882;2022-10-16T14:30:14;3.85;;;1.88;;
52306;SDS011;38249;48.920;12.882;2022-10-16T14:32:53;4.63;;;1.90;;
52306;SDS011;38249;48.920;12.882;2022-10-16T14:35:28;1.88;;;1.60;;
52306;SDS011;38249;48.920;12.882;2022-10-16T14:37:57;5.05;;;1.75;;
52306;SDS011;38249;48.920;12.882;2022-10-16T14:40:26;5.43;;;1.63;;
52306;SDS011;38249;48.920;12.882;2022-10-16T14:42:54;6.00;;;2.00;;
52306;SDS011;38249;48.920;12.882;2022-10-16T14:45:24;3.58;;;2.20;;
52306;SDS011;38249;48.920;12.882;2022-10-16T14:47:53;2.63;;;2.28;;
52306;SDS011;38249;48.920;12.882;2022-10-16T14:50:22;3.90;;;1.77;;
52306;SDS011;38249;48.920;12.882;2022-10-16T14:52:49;14.73;;;12.93;;
52306;SDS011;38249;48.920;12.882;2022-10-16T14:55:16;10.90;;;7.45;;
52306;SDS011;38249;48.920;12.882;2022-10-16T14:57:43;8.90;;;5.45;;
52306;SDS011;38249;48.920;12.882;2022-10-16T15:00:15;4.95;;;2.40;;
52306;SDS011;38249;48.920;12.882;2022-10-16T15:02:46;4.50;;;2.58;;
52306;SDS011;38249;48.920;12.882;2022-10-16T15:05:15;4.05;;;3.10;;
52306;SDS011;38249;48.920;12.882;2022-10-16T15:07:44;4.25;;;2.38;;